createdAt,value
2019-06-01T00:00:42.106Z,20.5
2019-06-01T00:01:42.394Z,20.5
2019-06-01T00:02:44.120Z,20.44
2019-06-01T00:03:42.173Z,20.43
2019-06-01T00:04:41.190Z,20.43
2019-06-01T00:05:40.967Z,20.43
2019-06-01T00:06:41.232Z,20.48
2019-06-01T00:07:41.267Z,20.41
2019-06-01T00:08:44.988Z,20.37
2019-06-01T00:09:41.456Z,20.32
2019-06-01T00:10:41.413Z,20.31
2019-06-01T00:11:41.688Z,20.36
2019-06-01T00:12:41.516Z,20.37
2019-06-01T00:13:41.923Z,20.28
2019-06-01T00:14:42.128Z,20.28
2019-06-01T00:15:42.328Z,20.25
2019-06-01T00:16:43.695Z,20.25
2019-06-01T00:17:42.104Z,20.32
2019-06-01T00:18:42.253Z,20.31
2019-06-01T00:19:42.395Z,20.25
2019-06-01T00:20:42.296Z,20.28
2019-06-01T00:21:41.313Z,20.29
2019-06-01T00:22:41.626Z,20.16
2019-06-01T00:23:42.743Z,20.18
2019-06-01T00:24:41.725Z,20.16
2019-06-01T00:25:42.661Z,20.09
2019-06-01T00:26:41.751Z,20.11
2019-06-01T00:27:42.850Z,20.14
2019-06-01T00:28:42.011Z,20.18
2019-06-01T00:29:43.042Z,20.16
2019-06-01T00:30:41.765Z,20.04
2019-06-01T00:31:42.997Z,20.09
2019-06-01T00:32:42.684Z,20.07
2019-06-01T00:33:42.977Z,20.03
2019-06-01T00:34:41.855Z,20.04
2019-06-01T00:35:41.884Z,20
2019-06-01T00:36:41.901Z,20.02
2019-06-01T00:37:41.925Z,20.02
2019-06-01T00:38:41.931Z,20
2019-06-01T00:39:41.968Z,19.92
2019-06-01T00:40:42.008Z,19.95
2019-06-01T00:41:41.933Z,19.92
2019-06-01T00:42:42.117Z,19.96
2019-06-01T00:43:42.137Z,19.91
2019-06-01T00:44:42.172Z,19.86
2019-06-01T00:45:42.329Z,19.95
2019-06-01T00:46:42.498Z,19.81
2019-06-01T00:47:42.641Z,19.88
2019-06-01T00:48:42.172Z,19.74
2019-06-01T00:49:42.665Z,19.88
2019-06-01T00:50:42.984Z,19.82
2019-06-01T00:51:42.806Z,19.77
2019-06-01T00:52:42.930Z,19.77
2019-06-01T00:53:43.273Z,19.74
2019-06-01T00:54:43.176Z,19.79
2019-06-01T00:55:43.206Z,19.79
2019-06-01T00:56:43.450Z,19.73
2019-06-01T00:57:43.384Z,19.69
2019-06-01T00:58:42.469Z,19.79
2019-06-01T00:59:42.153Z,19.74
2019-06-01T01:00:51.940Z,19.67
2019-06-01T01:01:43.742Z,19.64
2019-06-01T01:02:42.461Z,19.64
2019-06-01T01:03:42.225Z,19.59
2019-06-01T01:04:42.549Z,19.67
2019-06-01T01:05:42.297Z,19.63
2019-06-01T01:06:42.568Z,19.58
2019-06-01T01:07:44.382Z,19.62
2019-06-01T01:08:42.624Z,19.59
2019-06-01T01:09:42.681Z,19.56
2019-06-01T01:10:42.655Z,19.54
2019-06-01T01:11:42.429Z,19.54
2019-06-01T01:12:42.718Z,19.66
2019-06-01T01:13:42.777Z,19.58
2019-06-01T01:14:42.723Z,19.48
2019-06-01T01:15:42.788Z,19.58
2019-06-01T01:16:42.787Z,19.4
2019-06-01T01:17:42.826Z,19.51
2019-06-01T01:18:42.843Z,19.48
2019-06-01T01:19:42.878Z,19.41
2019-06-01T01:20:42.624Z,19.49
2019-06-01T01:21:42.906Z,19.52
2019-06-01T01:22:42.660Z,19.49
2019-06-01T01:23:42.940Z,19.47
2019-06-01T01:24:42.944Z,19.41
2019-06-01T01:25:42.982Z,19.33
2019-06-01T01:26:43.013Z,19.41
2019-06-01T01:27:43.015Z,19.39
2019-06-01T01:28:43.035Z,19.33
2019-06-01T01:29:43.085Z,19.29
2019-06-01T01:30:57.984Z,19.31
2019-06-01T01:31:43.120Z,19.31
2019-06-01T01:32:43.223Z,19.34
2019-06-01T01:33:43.138Z,19.33
2019-06-01T01:34:43.221Z,19.37
2019-06-01T01:35:43.192Z,19.33
2019-06-01T01:36:43.219Z,19.26
2019-06-01T01:37:43.240Z,19.3
2019-06-01T01:38:43.271Z,19.27
2019-06-01T01:39:43.309Z,19.3
2019-06-01T01:40:43.376Z,19.21
2019-06-01T01:41:43.322Z,19.3
2019-06-01T01:42:43.091Z,19.27
2019-06-01T01:43:43.370Z,19.18
2019-06-01T01:44:43.419Z,19.16
2019-06-01T01:45:43.464Z,19.16
2019-06-01T01:46:43.429Z,19.14
2019-06-01T01:47:43.238Z,19.15
2019-06-01T01:48:43.229Z,19.19
2019-06-01T01:49:43.017Z,19.19
2019-06-01T01:50:43.522Z,19.14
2019-06-01T01:51:43.557Z,19.15
2019-06-01T01:52:43.581Z,19.07
2019-06-01T01:53:43.350Z,19.08
2019-06-01T01:54:43.354Z,19.07
2019-06-01T01:55:43.391Z,19.08
2019-06-01T01:56:43.646Z,18.93
2019-06-01T01:57:43.440Z,19
2019-06-01T01:58:43.724Z,18.98
2019-06-01T01:59:43.727Z,18.95
2019-06-01T02:00:43.751Z,18.9
2019-06-01T02:01:43.769Z,18.95
2019-06-01T02:02:43.787Z,18.9
2019-06-01T02:03:43.816Z,18.93
2019-06-01T02:04:43.825Z,18.93
2019-06-01T02:05:43.848Z,18.92
2019-06-01T02:06:43.895Z,18.95
2019-06-01T02:07:43.904Z,18.92
2019-06-01T02:08:43.926Z,18.92
2019-06-01T02:09:43.975Z,18.89
2019-06-01T02:10:43.966Z,18.95
2019-06-01T02:11:43.721Z,18.89
2019-06-01T02:12:44.017Z,18.93
2019-06-01T02:13:43.786Z,18.95
2019-06-01T02:14:43.804Z,18.89
2019-06-01T02:15:44.051Z,18.89
2019-06-01T02:16:44.107Z,18.92
2019-06-01T02:17:44.118Z,18.86
2019-06-01T02:18:44.132Z,18.8
2019-06-01T02:19:44.143Z,18.86
2019-06-01T02:20:44.187Z,18.83
2019-06-01T02:21:44.090Z,18.84
2019-06-01T02:22:44.418Z,18.77
2019-06-01T02:23:59.432Z,18.75
2019-06-01T02:24:44.252Z,18.8
2019-06-01T02:25:44.260Z,18.78
2019-06-01T02:26:44.053Z,18.68
2019-06-01T02:27:44.339Z,18.8
2019-06-01T02:28:44.342Z,18.75
2019-06-01T02:29:44.347Z,18.66
2019-06-01T02:30:44.427Z,18.75
2019-06-01T02:31:47.237Z,18.78
2019-06-01T02:32:44.447Z,18.7
2019-06-01T02:33:44.459Z,18.66
2019-06-01T02:34:44.464Z,18.71
2019-06-01T02:35:44.246Z,18.73
2019-06-01T02:36:44.526Z,18.66
2019-06-01T02:37:44.539Z,18.6
2019-06-01T02:38:44.572Z,18.66
2019-06-01T02:39:44.578Z,18.68
2019-06-01T02:40:44.591Z,18.7
2019-06-01T02:41:44.643Z,18.63
2019-06-01T02:42:44.633Z,18.62
2019-06-01T02:43:44.644Z,18.6
2019-06-01T02:44:44.430Z,18.59
2019-06-01T02:45:44.744Z,18.63
2019-06-01T02:46:44.730Z,18.58
2019-06-01T02:47:44.516Z,18.59
2019-06-01T02:48:44.788Z,18.52
2019-06-01T02:49:44.805Z,18.52
2019-06-01T02:50:44.833Z,18.56
2019-06-01T02:51:44.584Z,18.53
2019-06-01T02:52:44.844Z,18.49
2019-06-01T02:53:44.855Z,18.49
2019-06-01T02:54:44.876Z,18.5
2019-06-01T02:55:44.890Z,18.5
2019-06-01T02:56:44.932Z,18.45
2019-06-01T02:57:44.446Z,18.45
2019-06-01T02:58:44.988Z,18.47
2019-06-01T02:59:44.988Z,18.47
2019-06-01T03:00:45.012Z,18.37
2019-06-01T03:02:12.883Z,18.41
2019-06-01T03:02:44.806Z,18.4
2019-06-01T03:03:44.824Z,18.4
2019-06-01T03:04:45.089Z,18.33
2019-06-01T03:05:44.857Z,18.43
2019-06-01T03:06:45.170Z,18.26
2019-06-01T03:07:45.184Z,18.4
2019-06-01T03:08:45.281Z,18.38
2019-06-01T03:09:45.194Z,18.34
2019-06-01T03:10:45.245Z,18.34
2019-06-01T03:11:44.736Z,18.34
2019-06-01T03:12:45.284Z,18.28
2019-06-01T03:13:45.316Z,18.29
2019-06-01T03:14:45.300Z,18.34
2019-06-01T03:15:45.328Z,18.33
2019-06-01T03:16:45.337Z,18.34
2019-06-01T03:17:45.368Z,18.31
2019-06-01T03:18:45.381Z,18.34
2019-06-01T03:19:45.174Z,18.22
2019-06-01T03:20:45.432Z,18.25
2019-06-01T03:21:45.213Z,18.22
2019-06-01T03:22:45.483Z,18.2
2019-06-01T03:23:45.500Z,18.23
2019-06-01T03:24:45.530Z,18.2
2019-06-01T03:25:45.543Z,18.16
2019-06-01T03:26:45.332Z,18.22
2019-06-01T03:27:45.336Z,18.2
2019-06-01T03:28:45.600Z,18.05
2019-06-01T03:29:45.636Z,18.1
2019-06-01T03:30:50.409Z,18.22
2019-06-01T03:31:45.688Z,18.11
2019-06-01T03:32:45.693Z,18.16
2019-06-01T03:33:45.715Z,18.16
2019-06-01T03:34:45.730Z,18.23
2019-06-01T03:35:46.248Z,18.11
2019-06-01T03:36:45.519Z,18.11
2019-06-01T03:37:45.283Z,18.04
2019-06-01T03:38:45.808Z,18.16
2019-06-01T03:39:45.819Z,18.04
2019-06-01T03:40:45.847Z,18.1
2019-06-01T03:41:45.869Z,18.11
2019-06-01T03:42:45.891Z,18.1
2019-06-01T03:43:45.910Z,18.19
2019-06-01T03:44:45.683Z,18.19
2019-06-01T03:45:45.979Z,18.04
2019-06-01T03:46:46.096Z,18.03
2019-06-01T03:47:45.988Z,18.11
2019-06-01T03:48:46.040Z,18.08
2019-06-01T03:49:45.795Z,18.1
2019-06-01T03:50:45.818Z,18.1
2019-06-01T03:51:46.089Z,18.08
2019-06-01T03:52:46.115Z,18.08
2019-06-01T03:53:46.139Z,18.11
2019-06-01T03:54:48.571Z,18.08
2019-06-01T03:55:46.159Z,18.08
2019-06-01T03:56:46.251Z,18.08
2019-06-01T03:57:46.272Z,18.04
2019-06-01T03:58:45.956Z,18.08
2019-06-01T03:59:46.243Z,18.13
2019-06-01T04:00:45.760Z,17.97
2019-06-01T04:01:49.506Z,18
2019-06-01T04:02:46.293Z,18.01
2019-06-01T04:03:46.326Z,18.03
2019-06-01T04:04:46.363Z,18.03
2019-06-01T04:05:46.355Z,18.08
2019-06-01T04:06:46.386Z,18.05
2019-06-01T04:07:46.395Z,17.95
2019-06-01T04:08:46.440Z,18.04
2019-06-01T04:09:46.463Z,17.95
2019-06-01T04:10:46.490Z,18.01
2019-06-01T04:11:46.500Z,18.03
2019-06-01T04:12:46.511Z,18.05
2019-06-01T04:13:46.547Z,17.97
2019-06-01T04:14:46.315Z,17.97
2019-06-01T04:15:46.593Z,17.97
2019-06-01T04:16:46.616Z,17.98
2019-06-01T04:17:46.642Z,17.97
2019-06-01T04:18:46.658Z,17.98
2019-06-01T04:19:46.641Z,17.97
2019-06-01T04:20:46.424Z,18
2019-06-01T04:21:46.692Z,17.95
2019-06-01T04:22:46.703Z,17.97
2019-06-01T04:23:46.791Z,17.98
2019-06-01T04:24:46.516Z,17.98
2019-06-01T04:25:46.809Z,17.98
2019-06-01T04:26:46.790Z,17.86
2019-06-01T04:27:46.827Z,17.97
2019-06-01T04:28:46.862Z,17.9
2019-06-01T04:29:46.873Z,18.01
2019-06-01T04:30:46.630Z,17.97
2019-06-01T04:31:46.658Z,17.94
2019-06-01T04:32:55.132Z,17.87
2019-06-01T04:33:46.950Z,17.92
2019-06-01T04:34:46.978Z,17.98
2019-06-01T04:35:46.995Z,17.9
2019-06-01T04:36:47.026Z,18.01
2019-06-01T04:37:47.036Z,17.94
2019-06-01T04:38:47.067Z,17.98
2019-06-01T04:39:46.825Z,17.97
2019-06-01T04:40:47.110Z,17.94
2019-06-01T04:41:47.187Z,17.9
2019-06-01T04:42:47.167Z,17.92
2019-06-01T04:43:47.149Z,17.95
2019-06-01T04:44:47.242Z,17.94
2019-06-01T04:45:47.210Z,17.9
2019-06-01T04:46:47.221Z,17.9
2019-06-01T04:47:47.257Z,17.97
2019-06-01T04:48:47.244Z,17.98
2019-06-01T04:49:47.038Z,18.04
2019-06-01T04:50:47.298Z,17.94
2019-06-01T04:51:47.079Z,17.94
2019-06-01T04:52:47.348Z,18.01
2019-06-01T04:53:47.357Z,18.01
2019-06-01T04:54:47.390Z,18
2019-06-01T04:55:47.441Z,17.97
2019-06-01T04:56:47.408Z,18.05
2019-06-01T04:57:47.201Z,17.95
2019-06-01T04:58:47.481Z,18.01
2019-06-01T04:59:47.234Z,18.01
2019-06-01T05:00:47.251Z,18
2019-06-01T05:01:47.540Z,17.98
2019-06-01T05:02:47.562Z,18.01
2019-06-01T05:03:47.543Z,17.97
2019-06-01T05:04:48.569Z,18.03
2019-06-01T05:05:47.617Z,17.94
2019-06-01T05:06:47.609Z,17.97
2019-06-01T05:07:47.674Z,18.13
2019-06-01T05:08:47.429Z,18.01
2019-06-01T05:09:47.690Z,18.04
2019-06-01T05:10:47.719Z,18.1
2019-06-01T05:11:47.488Z,18.05
2019-06-01T05:12:47.749Z,18.16
2019-06-01T05:13:47.592Z,18.08
2019-06-01T05:14:47.795Z,18.08
2019-06-01T05:15:47.828Z,18.03
2019-06-01T05:16:47.590Z,18.05
2019-06-01T05:17:47.587Z,18.08
2019-06-01T05:18:47.862Z,18.05
2019-06-01T05:19:47.904Z,18.03
2019-06-01T05:20:47.917Z,18.05
2019-06-01T05:21:47.940Z,18.1
2019-06-01T05:22:47.698Z,18.1
2019-06-01T05:23:47.989Z,18.07
2019-06-01T05:24:47.997Z,18.04
2019-06-01T05:25:48.003Z,18.15
2019-06-01T05:26:48.036Z,18.11
2019-06-01T05:27:48.060Z,18.11
2019-06-01T05:28:47.806Z,18.11
2019-06-01T05:29:48.110Z,18.13
2019-06-01T05:30:47.846Z,18.07
2019-06-01T05:31:48.138Z,18.15
2019-06-01T05:32:48.157Z,18.1
2019-06-01T05:33:48.203Z,18.07
2019-06-01T05:34:48.198Z,18.22
2019-06-01T05:35:48.222Z,18.18
2019-06-01T05:36:48.392Z,18.2
2019-06-01T05:37:48.647Z,18.18
2019-06-01T05:38:48.262Z,18.19
2019-06-01T05:39:48.320Z,18.28
2019-06-01T05:40:48.318Z,18.18
2019-06-01T05:41:48.090Z,18.22
2019-06-01T05:42:48.364Z,18.31
2019-06-01T05:43:48.439Z,18.25
2019-06-01T05:44:48.420Z,18.26
2019-06-01T05:45:48.440Z,18.33
2019-06-01T05:46:48.439Z,18.28
2019-06-01T05:47:48.229Z,18.29
2019-06-01T05:48:48.506Z,18.26
2019-06-01T05:49:48.530Z,18.37
2019-06-01T05:50:48.537Z,18.26
2019-06-01T05:51:48.574Z,18.35
2019-06-01T05:52:48.617Z,18.43
2019-06-01T05:53:48.569Z,18.41
2019-06-01T05:54:48.646Z,18.43
2019-06-01T05:55:48.651Z,18.5
2019-06-01T05:56:48.630Z,18.49
2019-06-01T05:57:48.418Z,18.49
2019-06-01T05:58:48.774Z,18.47
2019-06-01T05:59:48.447Z,18.5
2019-06-01T06:00:48.766Z,18.55
2019-06-01T06:01:48.237Z,18.52
2019-06-01T06:02:48.518Z,18.6
2019-06-01T06:03:48.809Z,18.6
2019-06-01T06:04:48.564Z,18.59
2019-06-01T06:05:48.802Z,18.65
2019-06-01T06:06:48.865Z,18.58
2019-06-01T06:07:48.875Z,18.6
2019-06-01T06:08:48.889Z,18.68
2019-06-01T06:09:48.917Z,18.62
2019-06-01T06:10:48.684Z,18.62
2019-06-01T06:11:48.948Z,18.62
2019-06-01T06:12:48.980Z,18.66
2019-06-01T06:13:49.023Z,18.83
2019-06-01T06:14:49.023Z,18.81
2019-06-01T06:15:49.072Z,18.78
2019-06-01T06:16:49.069Z,18.74
2019-06-01T06:17:49.078Z,18.77
2019-06-01T06:18:49.092Z,18.77
2019-06-01T06:19:48.863Z,18.84
2019-06-01T06:20:49.157Z,18.86
2019-06-01T06:21:49.189Z,18.9
2019-06-01T06:22:49.203Z,18.95
2019-06-01T06:23:48.973Z,18.88
2019-06-01T06:24:48.982Z,18.96
2019-06-01T06:25:49.245Z,18.96
2019-06-01T06:26:49.282Z,19.02
2019-06-01T06:27:49.339Z,18.99
2019-06-01T06:28:49.053Z,19.08
2019-06-01T06:29:49.339Z,19.07
2019-06-01T06:30:49.368Z,19.12
2019-06-01T06:31:49.402Z,19.16
2019-06-01T06:32:49.417Z,19.22
2019-06-01T06:34:00.970Z,19.24
2019-06-01T06:34:48.944Z,19.29
2019-06-01T06:35:49.502Z,19.33
2019-06-01T06:36:48.999Z,19.45
2019-06-01T06:37:49.520Z,19.45
2019-06-01T06:38:49.293Z,19.4
2019-06-01T06:39:49.549Z,19.51
2019-06-01T06:40:49.554Z,19.59
2019-06-01T06:41:49.602Z,19.59
2019-06-01T06:42:49.359Z,19.64
2019-06-01T06:43:49.126Z,19.67
2019-06-01T06:44:49.690Z,19.7
2019-06-01T06:45:49.678Z,19.79
2019-06-01T06:46:49.443Z,19.82
2019-06-01T06:47:49.478Z,19.89
2019-06-01T06:48:49.781Z,20.02
2019-06-01T06:49:49.775Z,20.04
2019-06-01T06:50:49.553Z,20.13
2019-06-01T06:51:49.854Z,20.18
2019-06-01T06:52:49.841Z,20.25
2019-06-01T06:53:49.939Z,20.24
2019-06-01T06:54:49.919Z,20.29
2019-06-01T06:55:49.880Z,20.4
2019-06-01T06:56:49.665Z,20.36
2019-06-01T06:57:49.955Z,20.51
2019-06-01T06:58:50.042Z,20.48
2019-06-01T06:59:49.736Z,20.52
2019-06-01T07:00:50.012Z,20.62
2019-06-01T07:01:49.803Z,20.6
2019-06-01T07:02:50.039Z,20.72
2019-06-01T07:03:49.782Z,20.77
2019-06-01T07:04:50.124Z,20.9
2019-06-01T07:05:49.858Z,20.96
2019-06-01T07:06:49.885Z,20.92
2019-06-01T07:07:50.152Z,21.02
2019-06-01T07:08:53.735Z,20.99
2019-06-01T07:09:49.937Z,21
2019-06-01T07:10:50.204Z,21.17
2019-06-01T07:11:50.011Z,21.22
2019-06-01T07:12:50.256Z,21.24
2019-06-01T07:13:50.290Z,21.25
2019-06-01T07:14:50.089Z,21.3
2019-06-01T07:15:49.842Z,21.37
2019-06-01T07:16:50.364Z,21.4
2019-06-01T07:17:50.138Z,21.33
2019-06-01T07:18:50.424Z,21.4
2019-06-01T07:19:50.461Z,21.5
2019-06-01T07:20:50.436Z,21.54
2019-06-01T07:21:50.434Z,21.52
2019-06-01T07:22:50.508Z,21.72
2019-06-01T07:23:50.247Z,21.7
2019-06-01T07:24:50.270Z,21.67
2019-06-01T07:25:50.300Z,21.79
2019-06-01T07:26:50.342Z,21.83
2019-06-01T07:27:50.584Z,21.82
2019-06-01T07:28:50.620Z,21.95
2019-06-01T07:29:50.657Z,21.99
2019-06-01T07:30:55.584Z,22.06
2019-06-01T07:31:50.661Z,22
2019-06-01T07:32:50.439Z,22.17
2019-06-01T07:33:50.756Z,22.18
2019-06-01T07:34:50.724Z,22.23
2019-06-01T07:35:50.541Z,22.23
2019-06-01T07:36:50.805Z,22.28
2019-06-01T07:37:50.560Z,22.32
2019-06-01T07:38:50.913Z,22.38
2019-06-01T07:39:50.867Z,22.41
2019-06-01T07:40:50.409Z,22.39
2019-06-01T07:41:50.980Z,22.47
2019-06-01T07:42:51.366Z,22.44
2019-06-01T07:43:50.701Z,22.48
2019-06-01T07:44:50.730Z,22.47
2019-06-01T07:45:50.740Z,22.5
2019-06-01T07:46:51.021Z,22.5
2019-06-01T07:47:51.036Z,22.66
2019-06-01T07:48:51.050Z,22.6
2019-06-01T07:49:51.067Z,22.59
2019-06-01T07:50:51.104Z,22.69
2019-06-01T07:51:50.998Z,22.65
2019-06-01T07:52:51.135Z,22.66
2019-06-01T07:53:50.919Z,22.7
2019-06-01T07:54:51.186Z,22.8
2019-06-01T07:55:51.209Z,22.85
2019-06-01T07:56:51.227Z,22.84
2019-06-01T07:57:51.261Z,22.88
2019-06-01T07:58:51.030Z,22.91
2019-06-01T07:59:51.325Z,22.98
2019-06-01T08:00:51.306Z,22.98
2019-06-01T08:01:51.170Z,23.03
2019-06-01T08:02:51.349Z,23.12
2019-06-01T08:03:51.385Z,23.1
2019-06-01T08:04:58.185Z,23.18
2019-06-01T08:05:51.424Z,23.23
2019-06-01T08:06:53.526Z,23.17
2019-06-01T08:07:51.486Z,23.32
2019-06-01T08:08:51.498Z,23.27
2019-06-01T08:09:51.821Z,23.28
2019-06-01T08:10:51.716Z,23.4
2019-06-01T08:11:51.923Z,23.39
2019-06-01T08:12:51.309Z,23.48
2019-06-01T08:13:51.360Z,23.59
2019-06-01T08:14:51.402Z,23.54
2019-06-01T08:15:51.742Z,23.62
2019-06-01T08:16:51.451Z,23.66
2019-06-01T08:17:51.482Z,23.8
2019-06-01T08:18:55.639Z,23.81
2019-06-01T08:19:56.572Z,23.8
2019-06-01T08:20:51.826Z,23.81
2019-06-01T08:21:51.823Z,23.92
2019-06-01T08:22:51.845Z,23.99
2019-06-01T08:23:51.861Z,24.03
2019-06-01T08:24:51.885Z,24.17
2019-06-01T08:25:51.921Z,24.28
2019-06-01T08:26:51.921Z,24.45
2019-06-01T08:27:51.960Z,24.43
2019-06-01T08:28:51.975Z,24.55
2019-06-01T08:29:51.999Z,24.66
2019-06-01T08:30:52.041Z,24.74
2019-06-01T08:31:55.549Z,24.73
2019-06-01T08:32:52.070Z,24.74
2019-06-01T08:33:51.841Z,24.86
2019-06-01T08:35:07.096Z,24.92
2019-06-01T08:35:52.163Z,24.88
2019-06-01T08:36:52.163Z,24.98
2019-06-01T08:37:52.193Z,24.95
2019-06-01T08:38:51.985Z,25.01
2019-06-01T08:39:52.227Z,25.07
2019-06-01T08:40:52.004Z,25.08
2019-06-01T08:41:52.263Z,25.13
2019-06-01T08:42:52.317Z,25.17
2019-06-01T08:43:52.336Z,25.28
2019-06-01T08:44:52.352Z,25.33
2019-06-01T08:45:52.391Z,25.31
2019-06-01T08:46:52.138Z,25.38
2019-06-01T08:47:52.438Z,25.47
2019-06-01T08:48:52.456Z,25.59
2019-06-01T08:49:52.491Z,25.66
2019-06-01T08:50:52.253Z,25.58
2019-06-01T08:51:52.540Z,25.72
2019-06-01T08:52:52.284Z,25.75
2019-06-01T08:53:52.553Z,25.81
2019-06-01T08:54:52.609Z,25.84
2019-06-01T08:55:52.625Z,25.95
2019-06-01T08:56:52.393Z,25.95
2019-06-01T08:57:52.685Z,26.13
2019-06-01T08:58:52.707Z,26.15
2019-06-01T08:59:52.720Z,26.13
2019-06-01T09:00:52.498Z,26.26
2019-06-01T09:01:52.766Z,26.34
2019-06-01T09:02:52.790Z,26.36
2019-06-01T09:03:52.560Z,26.47
2019-06-01T09:04:52.572Z,26.53
2019-06-01T09:05:52.612Z,26.59
2019-06-01T09:06:52.899Z,26.55
2019-06-01T09:07:52.932Z,26.6
2019-06-01T09:08:52.989Z,26.66
2019-06-01T09:09:52.746Z,26.83
2019-06-01T09:10:53.010Z,26.77
2019-06-01T09:11:52.746Z,26.88
2019-06-01T09:12:52.783Z,26.95
2019-06-01T09:13:54.583Z,26.92
2019-06-01T09:14:53.094Z,27.05
2019-06-01T09:15:52.868Z,27.05
2019-06-01T09:16:53.151Z,27.08
2019-06-01T09:17:52.911Z,27.26
2019-06-01T09:18:53.052Z,27.27
2019-06-01T09:19:52.708Z,27.37
2019-06-01T09:20:52.993Z,27.32
2019-06-01T09:21:53.286Z,27.47
2019-06-01T09:22:53.326Z,27.45
2019-06-01T09:23:53.334Z,27.44
2019-06-01T09:24:57.483Z,27.49
2019-06-01T09:25:53.366Z,27.44
2019-06-01T09:26:52.919Z,27.52
2019-06-01T09:27:53.418Z,27.51
2019-06-01T09:28:53.453Z,27.45
2019-06-01T09:29:53.206Z,27.42
2019-06-01T09:30:53.511Z,27.47
2019-06-01T09:31:53.526Z,27.55
2019-06-01T09:32:53.548Z,27.54
2019-06-01T09:33:53.602Z,27.6
2019-06-01T09:34:53.619Z,27.59
2019-06-01T09:36:00.620Z,27.65
2019-06-01T09:36:55.568Z,27.73
2019-06-01T09:37:53.679Z,27.7
2019-06-01T09:38:53.732Z,27.73
2019-06-01T09:39:53.750Z,27.74
2019-06-01T09:40:53.882Z,27.78
2019-06-01T09:41:53.793Z,27.89
2019-06-01T09:42:53.794Z,27.85
2019-06-01T09:43:53.873Z,27.85
2019-06-01T09:44:53.623Z,27.85
2019-06-01T09:45:57.821Z,27.87
2019-06-01T09:46:53.931Z,28
2019-06-01T09:47:53.956Z,27.98
2019-06-01T09:48:54.324Z,27.95
2019-06-01T09:49:53.971Z,27.96
2019-06-01T09:50:54.019Z,27.96
2019-06-01T09:51:54.160Z,28
2019-06-01T09:52:54.885Z,28.05
2019-06-01T09:53:53.856Z,28.08
2019-06-01T09:54:54.144Z,28.12
2019-06-01T09:55:54.162Z,28.26
2019-06-01T09:56:53.999Z,28.32
2019-06-01T09:57:54.225Z,28.37
2019-06-01T09:58:53.979Z,28.33
2019-06-01T09:59:54.269Z,28.42
2019-06-01T10:00:54.283Z,28.47
2019-06-01T10:01:54.441Z,28.39
2019-06-01T10:02:54.324Z,28.39
2019-06-01T10:03:54.211Z,28.56
2019-06-01T10:04:54.130Z,28.54
2019-06-01T10:06:06.379Z,28.47
2019-06-01T10:06:54.186Z,28.66
2019-06-01T10:07:54.491Z,28.62
2019-06-01T10:08:54.237Z,28.67
2019-06-01T10:09:54.275Z,28.78
2019-06-01T10:10:54.557Z,28.78
2019-06-01T10:11:54.315Z,28.85
2019-06-01T10:12:54.364Z,28.84
2019-06-01T10:13:54.802Z,28.93
2019-06-01T10:14:54.654Z,29.01
2019-06-01T10:15:54.701Z,29.05
2019-06-01T10:16:54.723Z,29.02
2019-06-01T10:17:54.494Z,29.08
2019-06-01T10:18:54.573Z,29.1
2019-06-01T10:19:54.571Z,29.13
2019-06-01T10:20:54.827Z,29.16
2019-06-01T10:21:54.859Z,29.19
2019-06-01T10:22:54.863Z,29.31
2019-06-01T10:23:55.011Z,29.34
2019-06-01T10:24:54.682Z,29.41
2019-06-01T10:25:54.698Z,29.51
2019-06-01T10:26:54.706Z,29.54
2019-06-01T10:27:56.334Z,29.57
2019-06-01T10:28:55.090Z,29.71
2019-06-01T10:29:55.084Z,29.69
2019-06-01T10:30:55.097Z,29.73
2019-06-01T10:31:55.130Z,29.88
2019-06-01T10:32:55.164Z,29.93
2019-06-01T10:33:56.686Z,30.05
2019-06-01T10:34:54.962Z,30.1
2019-06-01T10:35:54.981Z,30.02
2019-06-01T10:36:55.006Z,30.21
2019-06-01T10:37:55.291Z,30.24
2019-06-01T10:38:55.337Z,30.24
2019-06-01T10:39:55.334Z,30.4
2019-06-01T10:40:55.395Z,30.34
2019-06-01T10:41:55.158Z,30.54
2019-06-01T10:42:55.480Z,30.62
2019-06-01T10:43:55.436Z,30.65
2019-06-01T10:44:55.498Z,30.73
2019-06-01T10:45:55.516Z,30.8
2019-06-01T10:46:55.552Z,30.84
2019-06-01T10:47:55.566Z,30.85
2019-06-01T10:48:55.696Z,31.03
2019-06-01T10:49:55.375Z,31.03
2019-06-01T10:50:55.392Z,31.03
2019-06-01T10:51:55.708Z,31.1
2019-06-01T10:52:55.699Z,31.1
2019-06-01T10:53:55.224Z,31.22
2019-06-01T10:54:55.520Z,31.2
2019-06-01T10:55:55.772Z,31.22
2019-06-01T10:56:56.196Z,31.29
2019-06-01T10:57:55.857Z,31.37
2019-06-01T10:59:04.668Z,31.46
2019-06-01T10:59:55.634Z,31.4
2019-06-01T11:00:56.542Z,31.36
2019-06-01T11:01:55.966Z,31.42
2019-06-01T11:02:56.002Z,31.42
2019-06-01T11:03:56.010Z,31.47
2019-06-01T11:04:56.058Z,31.55
2019-06-01T11:05:56.083Z,31.71
2019-06-01T11:06:55.849Z,31.71
2019-06-01T11:07:56.154Z,31.78
2019-06-01T11:08:55.921Z,31.92
2019-06-01T11:09:56.235Z,31.94
2019-06-01T11:10:56.276Z,31.99
2019-06-01T11:11:56.268Z,32.09
2019-06-01T11:12:56.296Z,32.09
2019-06-01T11:13:56.301Z,32.18
2019-06-01T11:14:56.332Z,32.22
2019-06-01T11:15:56.369Z,32.34
2019-06-01T11:17:01.619Z,32.36
2019-06-01T11:17:56.184Z,32.43
2019-06-01T11:18:56.437Z,32.45
2019-06-01T11:19:56.482Z,32.51
2019-06-01T11:20:56.503Z,32.59
2019-06-01T11:21:56.620Z,32.75
2019-06-01T11:22:56.569Z,32.82
2019-06-01T11:23:56.594Z,32.85
2019-06-01T11:24:56.632Z,33.01
2019-06-01T11:25:56.675Z,33.05
2019-06-01T11:26:56.669Z,33.05
2019-06-01T11:27:56.712Z,33.15
2019-06-01T11:28:56.761Z,33.27
2019-06-01T11:29:56.779Z,33.37
2019-06-01T11:30:56.785Z,33.4
2019-06-01T11:31:56.823Z,33.47
2019-06-01T11:32:56.878Z,33.52
2019-06-01T11:33:56.631Z,33.58
2019-06-01T11:34:56.685Z,33.67
2019-06-01T11:35:56.960Z,33.65
2019-06-01T11:37:09.515Z,33.74
2019-06-01T11:37:57.003Z,33.8
2019-06-01T11:38:57.057Z,33.86
2019-06-01T11:39:57.074Z,33.95
2019-06-01T11:40:57.155Z,33.98
2019-06-01T11:41:57.173Z,34.14
2019-06-01T11:42:57.172Z,34.16
2019-06-01T11:43:57.194Z,34.21
2019-06-01T11:44:57.286Z,34.29
2019-06-01T11:45:57.279Z,34.45
2019-06-01T11:46:57.371Z,34.42
2019-06-01T11:47:57.314Z,34.54
2019-06-01T11:48:57.091Z,34.6
2019-06-01T11:49:57.109Z,34.71
2019-06-01T11:50:57.395Z,34.7
2019-06-01T11:51:57.611Z,34.7
2019-06-01T11:52:57.491Z,34.75
2019-06-01T11:53:57.504Z,34.83
2019-06-01T11:54:57.265Z,34.97
2019-06-01T11:55:57.318Z,35.1
2019-06-01T11:56:57.623Z,35.12
2019-06-01T11:57:57.613Z,35.29
2019-06-01T11:58:57.662Z,35.31
2019-06-01T11:59:57.445Z,35.37
2019-06-01T12:00:57.451Z,35.51
2019-06-01T12:01:57.751Z,35.61
2019-06-01T12:02:57.277Z,35.66
2019-06-01T12:03:57.561Z,35.79
2019-06-01T12:04:57.847Z,35.82
2019-06-01T12:05:57.888Z,35.95
2019-06-01T12:07:13.614Z,35.95
2019-06-01T12:07:57.929Z,35.93
2019-06-01T12:08:57.995Z,36.09
2019-06-01T12:09:57.488Z,36.18
2019-06-01T12:10:58.024Z,36.27
2019-06-01T12:11:57.823Z,36.35
2019-06-01T12:12:58.109Z,36.43
2019-06-01T12:13:58.109Z,36.65
2019-06-01T12:14:57.914Z,36.64
2019-06-01T12:15:58.207Z,36.76
2019-06-01T12:16:58.245Z,36.86
2019-06-01T12:17:58.277Z,36.96
2019-06-01T12:18:58.280Z,37.03
2019-06-01T12:19:58.064Z,37.17
2019-06-01T12:20:58.391Z,37.23
2019-06-01T12:21:58.380Z,37.33
2019-06-01T12:22:58.421Z,37.51
2019-06-01T12:23:58.442Z,37.55
2019-06-01T12:24:57.986Z,37.58
2019-06-01T12:25:58.527Z,37.65
2019-06-01T12:26:58.552Z,37.68
2019-06-01T12:27:58.604Z,37.74
2019-06-01T12:28:58.613Z,37.82
2019-06-01T12:29:58.689Z,38.02
2019-06-01T12:30:58.425Z,38.08
2019-06-01T12:31:58.711Z,38.19
2019-06-01T12:32:58.747Z,38.21
2019-06-01T12:33:58.782Z,38.33
2019-06-01T12:35:02.765Z,38.36
2019-06-01T12:35:58.578Z,38.39
2019-06-01T12:36:58.933Z,38.45
2019-06-01T12:38:10.949Z,38.46
2019-06-01T12:38:58.975Z,38.5
2019-06-01T12:39:59.324Z,38.5
2019-06-01T12:40:59.024Z,38.61
2019-06-01T12:41:59.053Z,38.62
2019-06-01T12:42:59.099Z,38.61
2019-06-01T12:43:58.861Z,38.8
2019-06-01T12:44:58.620Z,38.82
2019-06-01T12:46:12.050Z,38.89
2019-06-01T12:46:59.238Z,38.97
2019-06-01T12:48:02.770Z,39.02
2019-06-01T12:48:59.315Z,39.11
2019-06-01T12:49:59.049Z,39.18
2019-06-01T12:50:59.359Z,39.17
2019-06-01T12:51:59.409Z,39.26
2019-06-01T12:52:59.419Z,39.33
2019-06-01T12:53:59.447Z,39.29
2019-06-01T12:54:59.479Z,39.3
2019-06-01T12:55:59.261Z,39.34
2019-06-01T12:56:59.322Z,39.46